Time;durP1;ratioP1;P1;durP2;ratioP2;P2;SDS_P1;SDS_P2;PMS_P1;PMS_P2;Temp;Humidity;BMP_temperature;BMP_pressure;BME280_temperature;BME280_humidity;BME280_pressure;Samples;Min_cycle;Max_cycle;Signal;HPM_P1;HPM_P2
2021/04/24 00:00:18;;;;;;;10.77;6.13;;;;;;;0.35;76.81;96308.65;1792652;80;21140;-63
2021/04/24 00:02:48;;;;;;;12.07;6.65;;;;;;;0.37;76.61;96303.48;1792742;80;21109;-64
2021/04/24 00:05:30;;;;;;;16.87;6.00;;;;;;;0.38;76.63;96300.08;1792694;80;21586;-63
2021/04/24 00:08:02;;;;;;;9.23;5.73;;;;;;;0.34;76.96;96304.69;1792587;80;21140;-64
2021/04/24 00:10:32;;;;;;;12.07;6.70;;;;;;;0.38;76.59;96307.44;1792146;80;21109;-63
2021/04/24 00:13:02;;;;;;;18.93;6.60;;;;;;;0.42;76.35;96306.69;1792832;80;21093;-63
2021/04/24 00:15:31;;;;;;;9.23;3.90;;;;;;;0.47;76.16;96304.66;1792600;80;21140;-64
2021/04/24 00:18:01;;;;;;;19.30;9.17;;;;;;;0.51;76.16;96300.92;1792344;80;21566;-64
2021/04/24 00:20:29;;;;;;;23.23;11.03;;;;;;;0.28;76.93;96305.38;1792810;79;21144;-64
2021/04/24 00:22:57;;;;;;;21.37;9.10;;;;;;;0.19;77.08;96308.97;1792636;80;21121;-64
2021/04/24 00:25:25;;;;;;;17.60;7.70;;;;;;;0.17;77.00;96311.92;1792538;80;21132;-64
2021/04/24 00:27:53;;;;;;;16.17;7.70;;;;;;;0.16;76.27;96307.16;1792828;80;21136;-63
2021/04/24 00:30:21;;;;;;;13.80;5.80;;;;;;;0.23;76.54;96306.95;1792551;80;21156;-64
2021/04/24 00:32:51;;;;;;;14.33;7.20;;;;;;;0.27;76.78;96306.63;1792381;80;21558;-64
2021/04/24 00:35:20;;;;;;;16.13;6.20;;;;;;;0.28;76.43;96307.98;1792583;80;21132;-63
2021/04/24 00:37:49;;;;;;;11.13;5.77;;;;;;;0.30;76.67;96301.09;1792582;80;21586;-64
2021/04/24 00:40:19;;;;;;;18.20;8.40;;;;;;;0.28;77.15;96321.34;1792706;80;21141;-64
2021/04/24 00:42:49;;;;;;;10.27;5.87;;;;;;;0.28;76.82;96319.66;1792856;79;21184;-63
2021/04/24 00:45:23;;;;;;;9.80;5.67;;;;;;;0.27;76.18;96310.52;1792453;80;21156;-65
2021/04/24 00:47:54;;;;;;;13.47;6.07;;;;;;;0.28;76.05;96305.38;1792575;80;21140;-64
2021/04/24 00:50:28;;;;;;;11.13;5.53;;;;;;;0.28;75.87;96307.98;1792679;80;21111;-63
2021/04/24 00:52:55;;;;;;;15.30;6.95;;;;;;;0.22;76.35;96315.55;1792475;80;21136;-63
2021/04/24 00:55:24;;;;;;;9.07;4.60;;;;;;;0.20;76.10;96319.41;1792587;80;21109;-63
2021/04/24 00:57:52;;;;;;;7.33;4.60;;;;;;;0.16;76.28;96316.23;1792824;80;21140;-63
2021/04/24 01:00:23;;;;;;;11.13;4.77;;;;;;;0.04;76.24;96316.25;1792744;80;21144;-63
2021/04/24 01:02:52;;;;;;;10.87;3.10;;;;;;;0.05;76.03;96318.91;1792874;80;21120;-64
2021/04/24 01:05:28;;;;;;;11.50;5.27;;;;;;;0.07;76.61;96318.94;1792824;80;21139;-63
2021/04/24 01:07:56;;;;;;;8.77;4.67;;;;;;;0.05;76.29;96316.70;1792449;80;21109;-63
2021/04/24 01:10:27;;;;;;;8.67;4.40;;;;;;;0.05;76.15;96320.59;1793007;80;21142;-63
2021/04/24 01:12:55;;;;;;;8.93;3.77;;;;;;;0.09;75.96;96322.05;1792759;80;21550;-63
2021/04/24 01:15:23;;;;;;;10.20;4.20;;;;;;;0.12;75.69;96319.97;1792529;80;21554;-63
2021/04/24 01:17:51;;;;;;;12.30;4.40;;;;;;;0.09;75.86;96324.64;1792398;80;21128;-64
2021/04/24 01:20:20;;;;;;;7.70;3.33;;;;;;;0.13;75.76;96325.23;1792764;80;21137;-63
2021/04/24 01:22:50;;;;;;;6.77;3.70;;;;;;;0.12;75.62;96325.16;1792510;80;21132;-64
2021/04/24 01:25:22;;;;;;;7.70;3.90;;;;;;;0.16;75.42;96321.42;1792584;80;21168;-64
2021/04/24 01:27:53;;;;;;;8.00;3.23;;;;;;;0.09;75.17;96328.53;1792470;80;21129;-64
2021/04/24 01:30:25;;;;;;;7.93;3.70;;;;;;;0.02;75.54;96327.86;1792732;80;21136;-63
2021/04/24 01:32:55;;;;;;;9.48;3.52;;;;;;;-0.03;75.50;96322.93;1792539;80;21128;-64
2021/04/24 01:35:30;;;;;;;6.23;3.70;;;;;;;-0.02;75.52;96322.13;1792746;79;21140;-63
2021/04/24 01:38:00;;;;;;;11.40;3.90;;;;;;;0.01;75.55;96325.23;1792843;79;21108;-63
2021/04/24 01:40:28;;;;;;;5.97;3.23;;;;;;;0.04;75.72;96322.73;1792503;79;21184;-63
2021/04/24 01:42:56;;;;;;;7.47;3.70;;;;;;;-0.05;75.42;96324.59;1792447;80;21605;-63
2021/04/24 01:45:26;;;;;;;6.43;3.40;;;;;;;-0.14;75.53;96326.47;1792616;80;21586;-64
2021/04/24 01:47:55;;;;;;;5.90;3.77;;;;;;;-0.16;75.68;96326.82;1792523;80;21128;-64
2021/04/24 01:50:34;;;;;;;7.10;3.00;;;;;;;-0.16;75.57;96328.12;1792634;80;21144;-64
2021/04/24 01:53:06;;;;;;;6.07;3.83;;;;;;;-0.11;75.65;96331.75;1792316;80;21605;-64
2021/04/24 01:55:37;;;;;;;6.27;3.30;;;;;;;-0.06;75.69;96327.60;1789620;79;21132;-64
2021/04/24 01:58:11;;;;;;;7.33;2.90;;;;;;;-0.16;75.78;96334.60;1786967;80;21128;-63
2021/04/24 02:00:43;;;;;;;6.80;3.43;;;;;;;-0.15;75.72;96327.31;1786930;80;21148;-63
2021/04/24 02:03:14;;;;;;;7.80;2.80;;;;;;;-0.09;75.71;96319.72;1787140;80;21547;-63
2021/04/24 02:05:45;;;;;;;6.00;3.27;;;;;;;-0.13;75.85;96325.63;1787172;80;21145;-63
2021/04/24 02:08:22;;;;;;;7.23;3.23;;;;;;;-0.18;76.01;96327.17;1787287;80;21144;-64
2021/04/24 02:10:54;;;;;;;4.53;2.97;;;;;;;-0.18;75.65;96325.88;1786904;80;21117;-64
2021/04/24 02:13:30;;;;;;;14.68;3.00;;;;;;;-0.14;75.87;96327.77;1787395;80;21093;-64
2021/04/24 02:15:59;;;;;;;6.40;2.67;;;;;;;-0.11;75.64;96326.98;1787216;80;21125;-63
2021/04/24 02:18:28;;;;;;;4.57;2.57;;;;;;;-0.10;75.59;96319.66;1786732;80;21601;-63
2021/04/24 02:20:56;;;;;;;5.63;2.80;;;;;;;-0.11;75.42;96326.98;1787027;80;21598;-64
2021/04/24 02:23:24;;;;;;;5.63;3.07;;;;;;;-0.08;75.42;96328.38;1787035;80;21101;-63
2021/04/24 02:25:52;;;;;;;7.60;2.57;;;;;;;-0.19;75.51;96326.72;1787098;80;21171;-63
2021/04/24 02:28:20;;;;;;;3.93;2.33;;;;;;;-0.22;75.64;96326.63;1787146;80;21124;-63
2021/04/24 02:30:47;;;;;;;5.47;2.97;;;;;;;-0.27;75.57;96319.10;1787296;80;21558;-64
2021/04/24 02:33:15;;;;;;;5.33;2.47;;;;;;;-0.30;75.62;96317.70;1786960;80;21634;-63
2021/04/24 02:35:54;;;;;;;3.33;1.90;;;;;;;-0.38;75.67;96326.91;1787104;80;21097;-63
2021/04/24 02:38:32;;;;;;;3.83;2.20;;;;;;;-0.47;75.64;96311.50;1787015;80;21137;-63
2021/04/24 02:41:03;;;;;;;5.73;2.43;;;;;;;-0.56;76.03;96308.57;1787192;80;21117;-63
2021/04/24 02:43:32;;;;;;;3.70;2.70;;;;;;;-0.50;76.10;96317.00;1787102;80;21116;-63
2021/04/24 02:46:00;;;;;;;7.73;3.07;;;;;;;-0.48;76.38;96319.21;1786992;80;21141;-64
2021/04/24 02:48:28;;;;;;;4.67;2.20;;;;;;;-0.56;77.00;96312.45;1787301;80;21161;-64
2021/04/24 02:50:55;;;;;;;5.33;2.60;;;;;;;-0.53;76.68;96315.19;1787168;80;21587;-63
2021/04/24 02:53:23;;;;;;;5.97;2.27;;;;;;;-0.46;76.48;96313.67;1787267;80;21499;-63
2021/04/24 02:55:50;;;;;;;4.97;2.77;;;;;;;-0.42;76.81;96319.45;1790025;80;21159;-63
2021/04/24 02:58:18;;;;;;;3.80;2.40;;;;;;;-0.45;76.40;96324.53;1792832;79;21503;-64
2021/04/24 03:00:47;;;;;;;5.07;2.97;;;;;;;-0.44;76.35;96321.97;1792733;80;21148;-63
2021/04/24 03:03:15;;;;;;;3.30;2.53;;;;;;;-0.39;76.25;96321.27;1792810;80;21144;-64
2021/04/24 03:05:44;;;;;;;4.93;2.47;;;;;;;-0.37;76.49;96317.89;1792800;80;21143;-64
2021/04/24 03:08:12;;;;;;;10.27;2.67;;;;;;;-0.42;76.07;96319.87;1792814;80;21135;-63
2021/04/24 03:10:41;;;;;;;5.93;3.40;;;;;;;-0.42;75.97;96324.63;1792999;80;21132;-63
2021/04/24 03:13:11;;;;;;;6.93;3.03;;;;;;;-0.40;75.93;96329.85;1792589;80;21152;-63
2021/04/24 03:15:39;;;;;;;6.80;2.80;;;;;;;-0.37;75.98;96326.09;1792931;80;21132;-63
2021/04/24 03:18:08;;;;;;;6.40;2.73;;;;;;;-0.41;75.60;96335.45;1792512;80;21128;-64
2021/04/24 03:20:36;;;;;;;4.63;2.60;;;;;;;-0.41;75.66;96336.75;1792822;79;21148;-63
2021/04/24 03:23:04;;;;;;;6.63;2.87;;;;;;;-0.39;76.20;96335.10;1792697;80;21143;-63
2021/04/24 03:25:33;;;;;;;4.43;2.17;;;;;;;-0.49;75.83;96335.61;1792801;80;21117;-63
2021/04/24 03:28:00;;;;;;;4.13;2.77;;;;;;;-0.57;76.27;96335.33;1792567;80;21609;-63
2021/04/24 03:30:28;;;;;;;6.87;3.17;;;;;;;-0.69;76.43;96336.18;1792889;79;21156;-64
2021/04/24 03:32:56;;;;;;;7.87;3.30;;;;;;;-0.69;76.49;96334.46;1792595;80;21128;-63
2021/04/24 03:35:25;;;;;;;4.80;2.70;;;;;;;-0.76;77.02;96336.36;1792488;79;21132;-64
2021/04/24 03:37:53;;;;;;;6.67;3.13;;;;;;;-0.83;77.59;96337.37;1792734;80;21161;-63
2021/04/24 03:40:20;;;;;;;6.63;2.60;;;;;;;-0.82;77.11;96342.63;1792912;79;21124;-63
2021/04/24 03:42:48;;;;;;;9.17;3.77;;;;;;;-0.80;78.25;96342.69;1792631;80;21566;-63
2021/04/24 03:45:21;;;;;;;7.77;3.00;;;;;;;-0.84;78.72;96342.97;1792648;79;21159;-63
2021/04/24 03:47:53;;;;;;;10.18;2.77;;;;;;;-0.85;77.89;96351.59;1793032;79;21121;-63
2021/04/24 03:50:24;;;;;;;9.23;3.40;;;;;;;-0.79;77.73;96349.63;1792490;80;21567;-63
2021/04/24 03:52:53;;;;;;;5.97;2.53;;;;;;;-0.72;77.87;96344.72;1792891;80;21132;-64
2021/04/24 03:55:23;;;;;;;4.43;2.30;;;;;;;-0.71;77.40;96347.77;1792682;80;21164;-63
2021/04/24 03:57:56;;;;;;;6.43;3.07;;;;;;;-0.62;77.36;96353.72;1792617;79;21107;-63
2021/04/24 04:00:28;;;;;;;6.58;3.08;;;;;;;-0.51;77.40;96354.11;1793357;79;21499;-63
2021/04/24 04:03:03;;;;;;;6.90;3.27;;;;;;;-0.39;77.36;96359.73;1792742;80;21093;-63
2021/04/24 04:05:36;;;;;;;4.67;2.83;;;;;;;-0.39;77.31;96360.16;1792574;79;21120;-64
2021/04/24 04:08:14;;;;;;;8.53;3.27;;;;;;;-0.25;77.35;96361.53;1820201;79;23164;-61
2021/04/24 04:10:44;;;;;;;9.13;3.93;;;;;;;-0.20;77.34;96364.27;1793508;80;21315;-63
2021/04/24 04:13:13;;;;;;;6.70;3.57;;;;;;;-0.08;77.11;96370.76;1763129;80;21148;-63
2021/04/24 04:15:42;;;;;;;9.57;5.13;;;;;;;-0.06;77.37;96369.53;1793720;80;21298;-64
2021/04/24 04:18:16;;;;;;;17.43;9.53;;;;;;;-0.06;77.58;96376.89;1793467;80;21263;-63
2021/04/24 04:20:51;;;;;;;16.00;7.10;;;;;;;-0.02;77.81;96380.49;1793621;80;21278;-64
2021/04/24 04:23:23;;;;;;;10.47;6.43;;;;;;;-0.03;77.71;96382.17;1793306;80;21267;-64
2021/04/24 04:25:51;;;;;;;18.83;8.70;;;;;;;-0.02;78.56;96384.38;1793528;80;21275;-63
2021/04/24 04:28:21;;;;;;;12.47;6.73;;;;;;;0.07;78.52;96383.80;1793857;80;21579;-63
2021/04/24 04:30:51;;;;;;;30.70;18.23;;;;;;;0.14;78.72;96390.55;1793657;80;21294;-63
2021/04/24 04:33:19;;;;;;;27.33;14.00;;;;;;;0.12;78.93;96390.03;1793520;80;21314;-63
2021/04/24 04:35:48;;;;;;;25.13;15.43;;;;;;;0.20;78.31;96392.47;1793409;80;21144;-64
2021/04/24 04:38:17;;;;;;;23.63;13.13;;;;;;;0.36;77.96;96392.59;1793776;80;21275;-64
2021/04/24 04:40:46;;;;;;;25.40;13.37;;;;;;;0.49;77.66;96395.17;1793775;80;21140;-63
2021/04/24 04:43:15;;;;;;;86.70;40.63;;;;;;;0.63;77.50;96402.98;1793783;80;21294;-64
2021/04/24 04:45:43;;;;;;;84.47;38.93;;;;;;;0.74;76.95;96391.66;1793421;80;21721;-64
2021/04/24 04:48:11;;;;;;;108.17;47.87;;;;;;;0.88;76.67;96385.16;1793540;80;21132;-63
2021/04/24 04:50:40;;;;;;;100.03;44.00;;;;;;;1.02;76.22;96383.02;1793431;80;21255;-63
2021/04/24 04:53:08;;;;;;;40.07;20.10;;;;;;;1.10;76.17;96384.12;1793653;80;21686;-63
2021/04/24 04:55:37;;;;;;;15.03;8.40;;;;;;;1.16;75.77;96389.91;1793889;80;21279;-63
2021/04/24 04:58:05;;;;;;;16.27;8.20;;;;;;;1.22;75.74;96383.63;1793552;80;21294;-64
2021/04/24 05:00:33;;;;;;;11.73;6.93;;;;;;;1.22;75.83;96390.99;1793590;80;21701;-64
2021/04/24 05:03:01;;;;;;;10.70;5.60;;;;;;;1.29;75.66;96386.45;1793977;80;21132;-63
2021/04/24 05:05:29;;;;;;;12.57;6.13;;;;;;;1.40;75.43;96386.76;1793212;80;21586;-63
2021/04/24 05:07:57;;;;;;;21.43;10.13;;;;;;;1.48;75.24;96384.38;1782883;80;21140;-63
2021/04/24 05:10:26;;;;;;;19.63;9.53;;;;;;;1.58;74.88;96380.33;1779947;80;21141;-63
2021/04/24 05:12:54;;;;;;;14.13;9.03;;;;;;;1.67;74.80;96381.91;1779951;81;21544;-62
2021/04/24 05:15:23;;;;;;;15.77;8.77;;;;;;;1.79;74.80;96383.95;1780105;81;21122;-62
2021/04/24 05:17:51;;;;;;;17.73;9.90;;;;;;;1.93;74.68;96387.82;1780032;81;21106;-61
2021/04/24 05:20:19;;;;;;;12.57;9.07;;;;;;;2.05;74.55;96389.89;1779324;81;21106;-62
2021/04/24 05:22:48;;;;;;;22.50;9.90;;;;;;;2.18;74.33;96390.67;1779544;81;21153;-62
2021/04/24 05:25:17;;;;;;;19.93;10.10;;;;;;;2.30;74.08;96391.42;1779348;81;21317;-62
2021/04/24 05:27:47;;;;;;;30.30;14.37;;;;;;;2.43;73.91;96392.19;1779466;80;21157;-62
2021/04/24 05:30:17;;;;;;;14.27;9.13;;;;;;;2.54;73.81;96395.06;1779665;80;21579;-62
2021/04/24 05:32:47;;;;;;;19.57;9.50;;;;;;;2.67;73.55;96394.55;1779369;81;21272;-62
2021/04/24 05:35:16;;;;;;;20.40;10.50;;;;;;;2.72;73.22;96395.94;1779298;81;21555;-62
2021/04/24 05:37:43;;;;;;;20.47;10.43;;;;;;;2.83;73.31;96398.39;1779338;81;21284;-62
2021/04/24 05:40:13;;;;;;;19.40;11.40;;;;;;;2.97;73.02;96398.70;1779198;81;21298;-62
2021/04/24 05:42:41;;;;;;;22.80;12.07;;;;;;;3.04;72.83;96395.41;1779331;81;21276;-62
2021/04/24 05:45:12;;;;;;;24.50;12.53;;;;;;;3.18;72.66;96391.83;1779408;81;21158;-62
2021/04/24 05:47:49;;;;;;;19.83;10.23;;;;;;;3.33;72.41;96396.52;1779560;81;21165;-62
2021/04/24 05:50:20;;;;;;;24.33;11.13;;;;;;;3.45;71.96;96387.63;1779251;80;21260;-62
2021/04/24 05:52:49;;;;;;;17.60;8.95;;;;;;;3.56;71.85;96393.09;1778698;80;21141;-62
2021/04/24 05:55:17;;;;;;;24.40;10.47;;;;;;;3.72;71.77;96391.68;1779247;81;21718;-62
2021/04/24 05:57:45;;;;;;;11.67;7.40;;;;;;;3.87;71.74;96392.86;1779423;81;21272;-62
2021/04/24 06:00:20;;;;;;;15.17;6.37;;;;;;;4.01;71.20;96383.14;1779273;81;21295;-62
2021/04/24 06:02:49;;;;;;;10.03;5.70;;;;;;;4.17;70.46;96386.91;1779539;81;21148;-62
2021/04/24 06:05:17;;;;;;;15.30;7.63;;;;;;;4.28;68.44;96377.12;1779207;81;21264;-62
2021/04/24 06:07:45;;;;;;;86.93;31.37;;;;;;;4.44;67.73;96377.41;1782637;80;21151;-62
2021/04/24 06:10:17;;;;;;;18.07;8.67;;;;;;;4.55;66.66;96367.56;1785232;80;21141;-62
2021/04/24 06:12:47;;;;;;;16.30;8.20;;;;;;;4.71;66.20;96377.88;1785225;80;21695;-62
2021/04/24 06:15:18;;;;;;;10.47;5.87;;;;;;;4.87;64.97;96372.89;1785028;80;21279;-62
2021/04/24 06:17:46;;;;;;;7.50;5.40;;;;;;;4.94;62.36;96368.22;1785319;80;21125;-62
2021/04/24 06:20:16;;;;;;;7.97;5.60;;;;;;;5.05;64.03;96361.41;1785141;80;21117;-62
2021/04/24 06:22:44;;;;;;;20.47;9.40;;;;;;;5.21;62.86;96359.45;1785009;80;21279;-62
2021/04/24 06:25:17;;;;;;;11.73;6.70;;;;;;;5.34;62.30;96360.93;1785098;80;21306;-62
2021/04/24 06:27:45;;;;;;;15.43;6.87;;;;;;;5.48;62.06;96361.14;1785364;80;21562;-62
2021/04/24 06:30:17;;;;;;;9.27;4.83;;;;;;;5.59;61.78;96361.73;1784898;80;21303;-62
2021/04/24 06:32:48;;;;;;;7.83;4.57;;;;;;;5.72;60.43;96358.84;1785103;80;21240;-62
2021/04/24 06:35:17;;;;;;;9.67;6.13;;;;;;;5.84;60.85;96359.41;1785176;80;21133;-62
2021/04/24 06:37:44;;;;;;;9.67;5.10;;;;;;;5.97;59.73;96359.15;1785107;80;21149;-62
2021/04/24 06:40:15;;;;;;;8.53;5.70;;;;;;;6.09;59.65;96361.04;1785361;80;21168;-62
2021/04/24 06:42:45;;;;;;;8.70;5.23;;;;;;;6.23;60.36;96364.27;1785281;80;21129;-62
2021/04/24 06:45:14;;;;;;;9.30;5.40;;;;;;;6.34;58.35;96355.19;1785078;80;21292;-62
2021/04/24 06:47:42;;;;;;;9.33;5.10;;;;;;;6.46;57.58;96353.13;1785050;80;21706;-62
2021/04/24 06:50:12;;;;;;;6.70;4.70;;;;;;;6.56;57.91;96351.04;1784918;80;21291;-63
2021/04/24 06:52:40;;;;;;;7.27;4.47;;;;;;;6.75;58.70;96351.19;1785689;80;21519;-62
2021/04/24 06:55:11;;;;;;;7.27;4.70;;;;;;;6.91;58.00;96346.09;1785368;80;21102;-62
2021/04/24 06:57:39;;;;;;;8.33;4.80;;;;;;;7.09;58.10;96346.66;1785021;80;21121;-62
2021/04/24 07:00:08;;;;;;;7.77;4.03;;;;;;;7.25;57.49;96351.56;1785046;80;21145;-62
2021/04/24 07:02:36;;;;;;;9.60;4.23;;;;;;;7.38;56.68;96344.64;1785249;80;21738;-62
2021/04/24 07:05:08;;;;;;;5.17;3.73;;;;;;;7.49;55.19;96339.47;1785146;80;21144;-62
2021/04/24 07:07:37;;;;;;;8.23;4.37;;;;;;;7.61;51.59;96347.41;1785270;80;21148;-62
2021/04/24 07:10:09;;;;;;;8.63;4.53;;;;;;;7.76;53.46;96345.27;1785051;80;21137;-62
2021/04/24 07:12:38;;;;;;;22.65;12.70;;;;;;;7.83;52.30;96344.42;1785343;80;21169;-62
2021/04/24 07:15:09;;;;;;;11.93;8.87;;;;;;;7.96;53.44;96345.34;1785166;80;21271;-62
2021/04/24 07:17:36;;;;;;;10.77;5.07;;;;;;;8.03;50.06;96347.12;1785078;80;21243;-62
2021/04/24 07:20:07;;;;;;;7.57;4.33;;;;;;;8.18;52.51;96341.92;1784988;80;21742;-62
2021/04/24 07:22:37;;;;;;;8.07;4.30;;;;;;;8.28;48.36;96339.33;1785364;80;21129;-62
2021/04/24 07:25:07;;;;;;;5.00;3.80;;;;;;;8.42;49.45;96339.83;1785035;80;21267;-62
2021/04/24 07:27:34;;;;;;;4.87;3.80;;;;;;;8.57;50.12;96343.37;1785132;80;21169;-62
2021/04/24 07:30:06;;;;;;;6.03;3.70;;;;;;;8.72;50.35;96340.75;1785092;80;21292;-62
2021/04/24 07:32:34;;;;;;;6.77;3.67;;;;;;;8.88;51.55;96338.98;1784763;80;22427;-62
2021/04/24 07:35:04;;;;;;;6.17;3.80;;;;;;;9.01;49.68;96338.55;1785124;80;21140;-62
2021/04/24 07:37:31;;;;;;;7.57;3.50;;;;;;;9.07;48.43;96333.26;1785247;80;21268;-62
2021/04/24 07:39:59;;;;;;;10.00;4.03;;;;;;;9.15;45.69;96342.05;1785029;80;21730;-62
2021/04/24 07:42:27;;;;;;;7.37;4.40;;;;;;;9.34;48.40;96336.75;1785106;80;21729;-62
2021/04/24 07:44:54;;;;;;;7.57;4.27;;;;;;;9.47;46.13;96332.75;1785030;80;21271;-62
2021/04/24 07:47:22;;;;;;;7.90;4.17;;;;;;;9.50;43.93;96335.41;1785188;80;21153;-62
2021/04/24 07:49:49;;;;;;;5.10;3.03;;;;;;;9.60;45.84;96332.30;1784988;80;21296;-62
2021/04/24 07:52:19;;;;;;;7.23;4.10;;;;;;;9.63;43.19;96328.78;1785089;80;21280;-62
2021/04/24 07:54:46;;;;;;;7.33;4.63;;;;;;;9.66;45.66;96328.77;1785067;80;21674;-62
2021/04/24 07:57:16;;;;;;;6.97;4.03;;;;;;;9.80;45.60;96330.89;1785301;80;21141;-62
2021/04/24 07:59:45;;;;;;;10.67;4.50;;;;;;;10.02;46.66;96327.73;1785257;80;21709;-62
2021/04/24 08:02:13;;;;;;;6.67;4.00;;;;;;;10.16;42.96;96325.91;1785082;80;21279;-62
2021/04/24 08:04:42;;;;;;;6.47;4.20;;;;;;;10.17;42.06;96332.92;1785044;80;21278;-62
2021/04/24 08:07:10;;;;;;;6.33;3.67;;;;;;;10.18;42.28;96332.52;1784993;80;21717;-62
2021/04/24 08:09:40;;;;;;;6.90;4.27;;;;;;;10.19;43.39;96328.53;1785144;80;21248;-62
2021/04/24 08:12:09;;;;;;;9.13;3.50;;;;;;;10.40;44.18;96324.91;1785237;80;21271;-62
2021/04/24 08:14:36;;;;;;;5.77;3.77;;;;;;;10.57;43.54;96330.09;1785028;80;21164;-62
2021/04/24 08:17:05;;;;;;;6.97;3.60;;;;;;;10.74;40.69;96331.30;1785398;80;21137;-62
2021/04/24 08:19:32;;;;;;;5.73;3.00;;;;;;;10.78;41.37;96331.69;1785146;80;21578;-62
2021/04/24 08:22:00;;;;;;;7.53;3.90;;;;;;;10.64;37.54;96318.19;1784770;80;21259;-62
2021/04/24 08:24:28;;;;;;;5.43;4.03;;;;;;;10.75;41.13;96321.16;1785042;80;21136;-62
2021/04/24 08:26:56;;;;;;;5.97;4.23;;;;;;;11.06;40.11;96327.50;1785780;80;21168;-62
2021/04/24 08:29:24;;;;;;;5.57;3.03;;;;;;;11.35;39.16;96322.41;1785205;80;21273;-62
2021/04/24 08:31:52;;;;;;;5.97;3.97;;;;;;;11.68;42.09;96322.05;1785069;80;21323;-62
2021/04/24 08:34:24;;;;;;;4.80;3.30;;;;;;;12.05;40.86;96313.71;1785194;80;21290;-62
2021/04/24 08:36:54;;;;;;;6.60;3.70;;;;;;;12.24;40.06;96312.14;1784849;80;21227;-62
2021/04/24 08:39:24;;;;;;;5.17;3.87;;;;;;;12.49;37.29;96315.31;1785175;80;21686;-62
2021/04/24 08:41:51;;;;;;;5.87;3.27;;;;;;;12.45;34.94;96321.57;1785114;80;21579;-62
2021/04/24 08:44:19;;;;;;;7.37;3.80;;;;;;;11.94;37.73;96324.86;1785066;80;21686;-62
2021/04/24 08:46:50;;;;;;;6.03;3.93;;;;;;;11.68;37.00;96327.33;1785260;80;21555;-62
2021/04/24 08:49:22;;;;;;;4.30;3.67;;;;;;;11.33;35.63;96326.38;1785021;80;21256;-62
2021/04/24 08:51:51;;;;;;;6.83;3.93;;;;;;;11.35;35.47;96321.09;1784672;80;21272;-62
2021/04/24 08:54:21;;;;;;;5.77;3.33;;;;;;;11.12;35.11;96316.91;1785403;80;21157;-62
2021/04/24 08:56:50;;;;;;;4.93;3.73;;;;;;;11.20;36.38;96322.11;1785333;80;21165;-62
2021/04/24 08:59:18;;;;;;;4.30;2.73;;;;;;;11.35;35.93;96317.13;1785145;80;21718;-62
2021/04/24 09:01:46;;;;;;;5.37;4.07;;;;;;;11.05;36.44;96318.71;1785255;80;21579;-62
2021/04/24 09:04:14;;;;;;;6.43;2.63;;;;;;;11.13;36.00;96325.24;1785265;80;21118;-62
2021/04/24 09:06:41;;;;;;;6.57;3.47;;;;;;;11.10;35.91;96321.31;1785053;80;21272;-62
2021/04/24 09:09:12;;;;;;;7.80;3.80;;;;;;;11.11;36.99;96310.30;1780851;80;21165;-62
2021/04/24 09:11:44;;;;;;;10.03;3.77;;;;;;;11.10;36.26;96316.48;1779510;81;21098;-62
2021/04/24 09:14:16;;;;;;;7.80;3.30;;;;;;;11.11;36.45;96311.17;1779668;81;21649;-62
2021/04/24 09:16:44;;;;;;;5.20;2.93;;;;;;;11.18;34.50;96304.95;1779365;81;21276;-62
2021/04/24 09:19:32;;;;;;;5.17;3.20;;;;;;;11.28;39.35;96300.91;1757699;81;21484;-62
2021/04/24 09:22:22;;;;;;;6.17;3.10;;;;;;;11.75;37.91;96300.39;1779563;81;21103;-62
2021/04/24 09:24:54;;;;;;;6.40;3.50;;;;;;;12.29;39.54;96287.36;1779223;81;21300;-62
2021/04/24 09:27:46;;;;;;;6.00;4.20;;;;;;;12.62;35.27;96276.30;1779837;81;21596;-62
2021/04/24 09:30:31;;;;;;;4.63;3.30;;;;;;;12.73;33.88;96278.34;1779742;81;21090;-62
2021/04/24 09:33:07;;;;;;;6.43;3.80;;;;;;;12.29;33.15;96280.73;1779307;81;21280;-62
2021/04/24 09:35:44;;;;;;;8.23;4.23;;;;;;;12.37;33.46;96277.98;1778065;80;21271;-62
2021/04/24 09:38:26;;;;;;;4.00;3.00;;;;;;;12.22;34.60;96278.20;1779661;81;21145;-62
2021/04/24 09:41:20;;;;;;;6.70;4.10;;;;;;;12.33;36.97;96271.00;1779209;80;21161;-62
2021/04/24 09:44:10;;;;;;;7.30;3.90;;;;;;;12.59;34.66;96273.70;1779624;81;21114;-62
2021/04/24 09:46:56;;;;;;;6.80;4.17;;;;;;;12.81;34.93;96268.95;1779186;81;21308;-62
2021/04/24 09:49:31;;;;;;;8.20;3.97;;;;;;;12.93;34.20;96264.31;1779761;81;21137;-62
2021/04/24 09:52:04;;;;;;;7.83;3.73;;;;;;;12.82;32.06;96260.95;1779536;81;21130;-62
2021/04/24 09:54:45;;;;;;;4.85;3.05;;;;;;;12.79;32.89;96254.39;1779643;81;21149;-62
2021/04/24 09:57:21;;;;;;;7.93;4.10;;;;;;;13.08;37.74;96252.58;1779641;81;21124;-62
2021/04/24 10:00:02;;;;;;;4.27;3.60;;;;;;;13.27;32.20;96252.27;1779403;81;21125;-62
2021/04/24 10:02:37;;;;;;;7.33;3.42;;;;;;;13.45;36.14;96247.06;1778282;80;21300;-62
2021/04/24 10:05:18;;;;;;;4.70;3.40;;;;;;;13.75;34.47;96249.09;1758274;81;21567;-62
2021/04/24 10:07:53;;;;;;;5.10;3.33;;;;;;;13.84;34.36;96237.45;1779585;80;21556;-62
2021/04/24 10:10:35;;;;;;;6.20;3.97;;;;;;;13.81;32.46;96234.41;1785427;80;21134;-62
2021/04/24 10:13:06;;;;;;;6.58;3.60;;;;;;;13.80;32.43;96226.01;1785266;80;21276;-62
2021/04/24 10:15:47;;;;;;;6.40;3.50;;;;;;;13.75;32.61;96228.34;1785040;80;21271;-62
2021/04/24 10:18:17;;;;;;;7.33;2.97;;;;;;;13.68;30.66;96224.93;1785384;80;21117;-62
2021/04/24 10:20:47;;;;;;;5.70;3.77;;;;;;;13.75;32.80;96226.55;1785044;80;21272;-62
2021/04/24 10:23:16;;;;;;;8.77;3.80;;;;;;;13.85;32.88;96224.59;1785169;80;21693;-62
2021/04/24 10:25:45;;;;;;;6.57;4.40;;;;;;;13.87;31.42;96225.89;1785274;80;21170;-62
2021/04/24 10:28:12;;;;;;;7.17;4.13;;;;;;;13.72;29.42;96227.95;1784921;80;21299;-62
2021/04/24 10:30:40;;;;;;;7.63;3.23;;;;;;;13.68;30.21;96236.00;1785422;80;21141;-62
2021/04/24 10:33:07;;;;;;;17.63;12.03;;;;;;;13.63;31.45;96228.13;1785197;80;21129;-62
2021/04/24 10:35:36;;;;;;;12.17;8.10;;;;;;;13.66;30.63;96226.77;1785300;80;21132;-62
2021/04/24 10:38:06;;;;;;;10.50;5.97;;;;;;;13.42;30.85;96234.28;1785264;80;21156;-62
2021/04/24 10:40:44;;;;;;;11.93;8.43;;;;;;;13.41;30.27;96227.25;1785393;80;21125;-62
2021/04/24 10:43:18;;;;;;;7.53;3.67;;;;;;;13.62;30.61;96221.96;1785320;80;21123;-62
2021/04/24 10:45:45;;;;;;;4.85;3.62;;;;;;;14.01;33.11;96214.08;1785421;80;21129;-62
2021/04/24 10:48:25;;;;;;;7.17;5.03;;;;;;;14.29;31.88;96210.80;1785156;80;21323;-62
2021/04/24 10:50:53;;;;;;;4.93;3.43;;;;;;;14.33;29.84;96213.78;1784840;80;21271;-62
2021/04/24 10:53:31;;;;;;;5.73;3.67;;;;;;;14.16;32.70;96206.23;1785286;80;21138;-62
2021/04/24 10:56:01;;;;;;;9.90;5.70;;;;;;;14.23;34.33;96206.94;1784966;80;21694;-62
2021/04/24 10:58:32;;;;;;;8.70;4.70;;;;;;;14.33;31.23;96215.56;1785345;80;21156;-62
2021/04/24 11:01:02;;;;;;;7.43;4.70;;;;;;;14.40;33.36;96212.73;1785080;80;21295;-62
2021/04/24 11:03:52;;;;;;;6.53;4.80;;;;;;;14.50;32.26;96208.08;1785307;80;21128;-62
2021/04/24 11:06:23;;;;;;;7.37;4.57;;;;;;;14.46;31.24;96203.73;1785206;80;21133;-62
2021/04/24 11:09:18;;;;;;;8.63;4.60;;;;;;;14.20;32.21;96207.89;1783116;80;21287;-62
2021/04/24 11:11:50;;;;;;;5.90;4.37;;;;;;;14.33;33.82;96203.63;1779437;81;21129;-62
2021/04/24 11:14:19;;;;;;;7.85;4.83;;;;;;;14.35;33.27;96205.80;1779597;81;21090;-62
2021/04/24 11:16:47;;;;;;;6.37;4.53;;;;;;;14.44;31.61;96206.45;1779560;81;21110;-63
2021/04/24 11:19:45;;;;;;;6.43;3.83;;;;;;;14.45;31.34;96205.99;1779361;81;21741;-62
2021/04/24 11:22:35;;;;;;;6.03;3.60;;;;;;;14.55;31.95;96202.70;1779463;81;21173;-62
2021/04/24 11:25:26;;;;;;;7.43;4.77;;;;;;;14.67;29.66;96207.71;1779484;81;21164;-62
2021/04/24 11:28:10;;;;;;;6.97;4.27;;;;;;;14.74;31.25;96200.01;1779332;81;21303;-62
2021/04/24 11:31:05;;;;;;;8.17;4.60;;;;;;;14.81;31.04;96198.92;1779618;81;21543;-62
2021/04/24 11:33:44;;;;;;;5.23;3.83;;;;;;;15.18;30.02;96196.63;1779275;81;21312;-62
2021/04/24 11:36:20;;;;;;;7.40;4.27;;;;;;;15.46;29.38;96193.21;1779350;81;21718;-62
2021/04/24 11:39:05;;;;;;;8.00;5.13;;;;;;;15.84;29.01;96180.63;1779137;81;21148;-62
2021/04/24 11:41:45;;;;;;;8.83;4.10;;;;;;;15.83;29.69;96181.09;1779548;81;21137;-62
2021/04/24 11:44:21;;;;;;;8.30;4.22;;;;;;;16.27;31.16;96182.83;1757670;81;21125;-62
2021/04/24 11:46:53;;;;;;;6.95;4.30;;;;;;;17.05;27.91;96176.73;1779300;81;21693;-62
2021/04/24 11:49:27;;;;;;;7.25;4.58;;;;;;;17.51;28.40;96171.09;1779569;81;21137;-62
2021/04/24 11:52:09;;;;;;;7.15;5.00;;;;;;;18.11;30.22;96170.20;1778246;80;21702;-63